sensor_id;sensor_type;location;lat;lon;timestamp;P1;durP1;ratioP1;P2;durP2;ratioP2
23531;SDS011;11943;52.270;20.978;2023-04-30T00:00:50;23.10;;;17.60;;
23531;SDS011;11943;52.270;20.978;2023-04-30T00:03:16;24.58;;;17.45;;
23531;SDS011;11943;52.270;20.978;2023-04-30T00:05:41;23.70;;;17.65;;
23531;SDS011;11943;52.270;20.978;2023-04-30T00:08:07;23.85;;;16.90;;
23531;SDS011;11943;52.270;20.978;2023-04-30T00:10:32;27.95;;;18.50;;
23531;SDS011;11943;52.270;20.978;2023-04-30T00:12:58;24.15;;;17.20;;
23531;SDS011;11943;52.270;20.978;2023-04-30T00:15:24;26.38;;;17.80;;
23531;SDS011;11943;52.270;20.978;2023-04-30T00:17:50;24.83;;;17.60;;
23531;SDS011;11943;52.270;20.978;2023-04-30T00:20:17;25.63;;;17.90;;
23531;SDS011;11943;52.270;20.978;2023-04-30T00:22:43;26.08;;;17.67;;
23531;SDS011;11943;52.270;20.978;2023-04-30T00:25:08;25.55;;;17.60;;
23531;SDS011;11943;52.270;20.978;2023-04-30T00:27:34;24.15;;;18.08;;
23531;SDS011;11943;52.270;20.978;2023-04-30T00:29:59;23.65;;;18.02;;
23531;SDS011;11943;52.270;20.978;2023-04-30T00:32:25;26.45;;;19.30;;
23531;SDS011;11943;52.270;20.978;2023-04-30T00:34:51;28.25;;;18.65;;
23531;SDS011;11943;52.270;20.978;2023-04-30T00:37:17;29.58;;;18.40;;
23531;SDS011;11943;52.270;20.978;2023-04-30T00:39:42;21.80;;;17.98;;
23531;SDS011;11943;52.270;20.978;2023-04-30T00:42:08;23.80;;;18.35;;
23531;SDS011;11943;52.270;20.978;2023-04-30T00:44:34;26.30;;;18.77;;
23531;SDS011;11943;52.270;20.978;2023-04-30T00:46:59;25.27;;;18.77;;
23531;SDS011;11943;52.270;20.978;2023-04-30T00:49:25;28.88;;;18.83;;
23531;SDS011;11943;52.270;20.978;2023-04-30T00:51:51;27.05;;;19.45;;
23531;SDS011;11943;52.270;20.978;2023-04-30T00:54:17;29.30;;;20.02;;
23531;SDS011;11943;52.270;20.978;2023-04-30T00:56:44;28.92;;;20.00;;
23531;SDS011;11943;52.270;20.978;2023-04-30T00:59:11;24.50;;;19.83;;
23531;SDS011;11943;52.270;20.978;2023-04-30T01:01:37;26.63;;;19.40;;
23531;SDS011;11943;52.270;20.978;2023-04-30T01:04:03;26.38;;;19.40;;
23531;SDS011;11943;52.270;20.978;2023-04-30T01:06:29;26.63;;;20.70;;
23531;SDS011;11943;52.270;20.978;2023-04-30T01:08:55;24.80;;;19.55;;
23531;SDS011;11943;52.270;20.978;2023-04-30T01:14:21;29.45;;;21.27;;
23531;SDS011;11943;52.270;20.978;2023-04-30T01:19:38;34.08;;;22.00;;
23531;SDS011;11943;52.270;20.978;2023-04-30T01:22:08;27.65;;;20.55;;
23531;SDS011;11943;52.270;20.978;2023-04-30T01:30:31;30.83;;;21.00;;
23531;SDS011;11943;52.270;20.978;2023-04-30T01:32:57;31.55;;;20.83;;
23531;SDS011;11943;52.270;20.978;2023-04-30T01:35:27;30.77;;;21.63;;
23531;SDS011;11943;52.270;20.978;2023-04-30T01:38:03;29.73;;;20.30;;
23531;SDS011;11943;52.270;20.978;2023-04-30T01:40:57;29.85;;;21.05;;
23531;SDS011;11943;52.270;20.978;2023-04-30T01:48:53;27.55;;;19.38;;
23531;SDS011;11943;52.270;20.978;2023-04-30T01:51:40;27.63;;;18.55;;
23531;SDS011;11943;52.270;20.978;2023-04-30T01:57:06;24.05;;;17.75;;
23531;SDS011;11943;52.270;20.978;2023-04-30T01:59:37;23.85;;;18.73;;
23531;SDS011;11943;52.270;20.978;2023-04-30T02:02:03;22.92;;;17.75;;
23531;SDS011;11943;52.270;20.978;2023-04-30T02:04:30;27.75;;;17.30;;
23531;SDS011;11943;52.270;20.978;2023-04-30T02:06:56;22.92;;;16.23;;
23531;SDS011;11943;52.270;20.978;2023-04-30T02:09:22;26.75;;;16.75;;
23531;SDS011;11943;52.270;20.978;2023-04-30T02:11:49;21.92;;;16.67;;
23531;SDS011;11943;52.270;20.978;2023-04-30T02:14:15;26.65;;;15.32;;
23531;SDS011;11943;52.270;20.978;2023-04-30T02:16:41;21.52;;;16.38;;
23531;SDS011;11943;52.270;20.978;2023-04-30T02:19:07;19.10;;;14.80;;
23531;SDS011;11943;52.270;20.978;2023-04-30T02:21:32;23.95;;;17.25;;
23531;SDS011;11943;52.270;20.978;2023-04-30T02:23:58;27.67;;;16.30;;
23531;SDS011;11943;52.270;20.978;2023-04-30T02:26:24;25.92;;;16.17;;
23531;SDS011;11943;52.270;20.978;2023-04-30T02:28:50;20.40;;;15.23;;
23531;SDS011;11943;52.270;20.978;2023-04-30T02:31:16;26.73;;;16.00;;
23531;SDS011;11943;52.270;20.978;2023-04-30T02:33:42;19.10;;;14.95;;
23531;SDS011;11943;52.270;20.978;2023-04-30T02:36:07;21.55;;;13.93;;
23531;SDS011;11943;52.270;20.978;2023-04-30T02:38:33;22.30;;;14.88;;
23531;SDS011;11943;52.270;20.978;2023-04-30T02:40:59;19.65;;;14.82;;
23531;SDS011;11943;52.270;20.978;2023-04-30T02:43:26;19.67;;;14.70;;
23531;SDS011;11943;52.270;20.978;2023-04-30T02:45:51;19.17;;;14.93;;
23531;SDS011;11943;52.270;20.978;2023-04-30T02:48:17;21.15;;;15.48;;
23531;SDS011;11943;52.270;20.978;2023-04-30T02:50:43;23.08;;;15.18;;
23531;SDS011;11943;52.270;20.978;2023-04-30T02:53:08;20.42;;;15.38;;
23531;SDS011;11943;52.270;20.978;2023-04-30T02:55:34;20.73;;;15.43;;
23531;SDS011;11943;52.270;20.978;2023-04-30T02:58:00;19.38;;;15.75;;
23531;SDS011;11943;52.270;20.978;2023-04-30T03:00:25;19.13;;;15.43;;
23531;SDS011;11943;52.270;20.978;2023-04-30T03:02:51;20.25;;;15.73;;
23531;SDS011;11943;52.270;20.978;2023-04-30T03:05:16;20.35;;;15.98;;
23531;SDS011;11943;52.270;20.978;2023-04-30T03:07:42;19.83;;;15.57;;
23531;SDS011;11943;52.270;20.978;2023-04-30T03:10:08;19.50;;;14.90;;
23531;SDS011;11943;52.270;20.978;2023-04-30T03:12:34;19.13;;;14.82;;
23531;SDS011;11943;52.270;20.978;2023-04-30T03:15:00;17.35;;;13.82;;
23531;SDS011;11943;52.270;20.978;2023-04-30T03:17:25;19.63;;;14.15;;
23531;SDS011;11943;52.270;20.978;2023-04-30T03:19:51;17.70;;;14.07;;
23531;SDS011;11943;52.270;20.978;2023-04-30T03:22:17;17.42;;;13.60;;
23531;SDS011;11943;52.270;20.978;2023-04-30T03:24:43;16.77;;;13.15;;
23531;SDS011;11943;52.270;20.978;2023-04-30T03:27:09;15.00;;;12.95;;
23531;SDS011;11943;52.270;20.978;2023-04-30T03:29:35;22.63;;;14.45;;
23531;SDS011;11943;52.270;20.978;2023-04-30T03:32:01;17.63;;;14.38;;
23531;SDS011;11943;52.270;20.978;2023-04-30T03:34:26;17.40;;;13.88;;
23531;SDS011;11943;52.270;20.978;2023-04-30T03:36:52;18.48;;;14.82;;
23531;SDS011;11943;52.270;20.978;2023-04-30T03:39:18;19.35;;;15.18;;
23531;SDS011;11943;52.270;20.978;2023-04-30T03:41:43;17.42;;;13.35;;
23531;SDS011;11943;52.270;20.978;2023-04-30T03:44:09;16.88;;;12.32;;
23531;SDS011;11943;52.270;20.978;2023-04-30T03:46:39;12.40;;;9.27;;
23531;SDS011;11943;52.270;20.978;2023-04-30T03:49:06;13.25;;;9.25;;
23531;SDS011;11943;52.270;20.978;2023-04-30T03:51:32;11.77;;;9.23;;
23531;SDS011;11943;52.270;20.978;2023-04-30T03:53:58;13.77;;;8.45;;
23531;SDS011;11943;52.270;20.978;2023-04-30T03:56:23;15.48;;;8.68;;
23531;SDS011;11943;52.270;20.978;2023-04-30T03:58:50;14.52;;;8.82;;
23531;SDS011;11943;52.270;20.978;2023-04-30T04:01:16;12.45;;;8.95;;
23531;SDS011;11943;52.270;20.978;2023-04-30T04:03:42;11.80;;;8.13;;
23531;SDS011;11943;52.270;20.978;2023-04-30T04:06:07;10.98;;;7.70;;
23531;SDS011;11943;52.270;20.978;2023-04-30T04:08:33;12.52;;;7.50;;
23531;SDS011;11943;52.270;20.978;2023-04-30T04:10:59;12.00;;;7.45;;
23531;SDS011;11943;52.270;20.978;2023-04-30T04:13:24;9.32;;;7.40;;
23531;SDS011;11943;52.270;20.978;2023-04-30T04:15:50;11.20;;;6.50;;
23531;SDS011;11943;52.270;20.978;2023-04-30T04:18:15;9.20;;;6.97;;
23531;SDS011;11943;52.270;20.978;2023-04-30T04:20:41;11.15;;;7.28;;
23531;SDS011;11943;52.270;20.978;2023-04-30T04:23:06;10.82;;;7.18;;
23531;SDS011;11943;52.270;20.978;2023-04-30T04:25:32;10.68;;;6.80;;
23531;SDS011;11943;52.270;20.978;2023-04-30T04:27:58;9.52;;;7.50;;
23531;SDS011;11943;52.270;20.978;2023-04-30T04:30:23;9.70;;;6.68;;
23531;SDS011;11943;52.270;20.978;2023-04-30T04:32:49;12.77;;;7.65;;
23531;SDS011;11943;52.270;20.978;2023-04-30T04:35:17;8.20;;;6.72;;
23531;SDS011;11943;52.270;20.978;2023-04-30T04:37:43;10.27;;;7.15;;
23531;SDS011;11943;52.270;20.978;2023-04-30T04:40:09;9.02;;;6.50;;
23531;SDS011;11943;52.270;20.978;2023-04-30T04:42:36;9.30;;;6.57;;
23531;SDS011;11943;52.270;20.978;2023-04-30T04:45:03;10.88;;;6.85;;
23531;SDS011;11943;52.270;20.978;2023-04-30T04:47:31;9.85;;;7.45;;
23531;SDS011;11943;52.270;20.978;2023-04-30T04:49:57;10.63;;;6.60;;
23531;SDS011;11943;52.270;20.978;2023-04-30T04:52:23;13.35;;;6.97;;
23531;SDS011;11943;52.270;20.978;2023-04-30T04:54:48;10.55;;;7.18;;
23531;SDS011;11943;52.270;20.978;2023-04-30T04:57:14;11.20;;;7.05;;
23531;SDS011;11943;52.270;20.978;2023-04-30T04:59:40;12.57;;;7.35;;
23531;SDS011;11943;52.270;20.978;2023-04-30T05:02:05;10.77;;;7.35;;
23531;SDS011;11943;52.270;20.978;2023-04-30T05:04:31;12.48;;;7.93;;
23531;SDS011;11943;52.270;20.978;2023-04-30T05:06:57;13.30;;;8.23;;
23531;SDS011;11943;52.270;20.978;2023-04-30T05:09:22;10.60;;;7.25;;
23531;SDS011;11943;52.270;20.978;2023-04-30T05:11:48;14.30;;;8.40;;
23531;SDS011;11943;52.270;20.978;2023-04-30T05:14:14;12.52;;;8.43;;
23531;SDS011;11943;52.270;20.978;2023-04-30T05:16:40;16.33;;;8.95;;
23531;SDS011;11943;52.270;20.978;2023-04-30T05:19:06;14.70;;;9.20;;
23531;SDS011;11943;52.270;20.978;2023-04-30T05:21:33;12.43;;;8.88;;
23531;SDS011;11943;52.270;20.978;2023-04-30T05:23:59;15.60;;;9.38;;
23531;SDS011;11943;52.270;20.978;2023-04-30T05:26:25;13.43;;;9.90;;
23531;SDS011;11943;52.270;20.978;2023-04-30T05:28:51;14.35;;;10.52;;
23531;SDS011;11943;52.270;20.978;2023-04-30T05:31:17;14.07;;;10.45;;
23531;SDS011;11943;52.270;20.978;2023-04-30T05:33:42;19.08;;;11.40;;
23531;SDS011;11943;52.270;20.978;2023-04-30T05:36:09;15.35;;;11.00;;
23531;SDS011;11943;52.270;20.978;2023-04-30T05:38:35;15.50;;;11.30;;
23531;SDS011;11943;52.270;20.978;2023-04-30T05:41:00;18.75;;;10.80;;
23531;SDS011;11943;52.270;20.978;2023-04-30T05:43:26;16.38;;;11.88;;
23531;SDS011;11943;52.270;20.978;2023-04-30T05:45:52;18.23;;;11.52;;
23531;SDS011;11943;52.270;20.978;2023-04-30T05:48:17;16.92;;;12.48;;
23531;SDS011;11943;52.270;20.978;2023-04-30T05:50:43;21.15;;;12.45;;
23531;SDS011;11943;52.270;20.978;2023-04-30T05:53:09;18.58;;;11.23;;
23531;SDS011;11943;52.270;20.978;2023-04-30T05:55:34;20.45;;;12.00;;
23531;SDS011;11943;52.270;20.978;2023-04-30T05:58:00;15.90;;;11.88;;
23531;SDS011;11943;52.270;20.978;2023-04-30T06:00:26;16.15;;;11.45;;
23531;SDS011;11943;52.270;20.978;2023-04-30T06:02:51;19.05;;;12.52;;
23531;SDS011;11943;52.270;20.978;2023-04-30T06:05:17;17.63;;;11.18;;
23531;SDS011;11943;52.270;20.978;2023-04-30T06:07:43;19.67;;;11.77;;
23531;SDS011;11943;52.270;20.978;2023-04-30T06:10:09;16.20;;;11.35;;
23531;SDS011;11943;52.270;20.978;2023-04-30T06:12:35;15.37;;;11.73;;
23531;SDS011;11943;52.270;20.978;2023-04-30T06:15:01;20.92;;;12.20;;
23531;SDS011;11943;52.270;20.978;2023-04-30T06:17:27;20.67;;;12.80;;
23531;SDS011;11943;52.270;20.978;2023-04-30T06:19:52;17.77;;;11.93;;
23531;SDS011;11943;52.270;20.978;2023-04-30T06:22:18;16.73;;;11.68;;
23531;SDS011;11943;52.270;20.978;2023-04-30T06:24:44;16.88;;;11.02;;
23531;SDS011;11943;52.270;20.978;2023-04-30T06:27:10;17.65;;;11.88;;
23531;SDS011;11943;52.270;20.978;2023-04-30T06:29:35;17.65;;;11.63;;
23531;SDS011;11943;52.270;20.978;2023-04-30T06:32:01;17.25;;;11.05;;
23531;SDS011;11943;52.270;20.978;2023-04-30T06:34:26;15.35;;;9.68;;
23531;SDS011;11943;52.270;20.978;2023-04-30T06:36:52;16.25;;;10.43;;
23531;SDS011;11943;52.270;20.978;2023-04-30T06:39:18;14.40;;;9.48;;
23531;SDS011;11943;52.270;20.978;2023-04-30T06:41:43;17.85;;;9.00;;
23531;SDS011;11943;52.270;20.978;2023-04-30T06:44:11;17.25;;;9.27;;
23531;SDS011;11943;52.270;20.978;2023-04-30T06:46:37;13.27;;;10.05;;
23531;SDS011;11943;52.270;20.978;2023-04-30T06:49:02;14.73;;;8.68;;
23531;SDS011;11943;52.270;20.978;2023-04-30T06:51:28;13.93;;;9.32;;
23531;SDS011;11943;52.270;20.978;2023-04-30T06:53:54;9.57;;;7.03;;
23531;SDS011;11943;52.270;20.978;2023-04-30T06:56:20;10.13;;;7.78;;
23531;SDS011;11943;52.270;20.978;2023-04-30T06:58:46;10.88;;;7.55;;
23531;SDS011;11943;52.270;20.978;2023-04-30T07:01:11;13.15;;;7.15;;
23531;SDS011;11943;52.270;20.978;2023-04-30T07:03:37;9.82;;;6.78;;
23531;SDS011;11943;52.270;20.978;2023-04-30T07:06:03;8.23;;;5.90;;
23531;SDS011;11943;52.270;20.978;2023-04-30T07:08:29;9.40;;;5.68;;
23531;SDS011;11943;52.270;20.978;2023-04-30T07:10:55;15.75;;;5.95;;
23531;SDS011;11943;52.270;20.978;2023-04-30T07:13:21;16.98;;;5.60;;
23531;SDS011;11943;52.270;20.978;2023-04-30T07:15:46;6.93;;;5.22;;
23531;SDS011;11943;52.270;20.978;2023-04-30T07:18:12;8.00;;;5.30;;
23531;SDS011;11943;52.270;20.978;2023-04-30T07:20:38;9.95;;;5.85;;
23531;SDS011;11943;52.270;20.978;2023-04-30T07:23:03;7.22;;;5.50;;
23531;SDS011;11943;52.270;20.978;2023-04-30T07:25:29;10.38;;;5.90;;
23531;SDS011;11943;52.270;20.978;2023-04-30T07:27:54;12.23;;;5.32;;
23531;SDS011;11943;52.270;20.978;2023-04-30T07:30:20;6.60;;;4.10;;
23531;SDS011;11943;52.270;20.978;2023-04-30T07:32:46;17.25;;;4.47;;
23531;SDS011;11943;52.270;20.978;2023-04-30T07:35:12;11.10;;;4.35;;
23531;SDS011;11943;52.270;20.978;2023-04-30T07:37:38;10.40;;;4.00;;
23531;SDS011;11943;52.270;20.978;2023-04-30T07:40:05;10.02;;;4.40;;
23531;SDS011;11943;52.270;20.978;2023-04-30T07:44:58;8.13;;;4.22;;
23531;SDS011;11943;52.270;20.978;2023-04-30T07:47:24;7.75;;;4.40;;
23531;SDS011;11943;52.270;20.978;2023-04-30T07:49:51;10.82;;;4.07;;
23531;SDS011;11943;52.270;20.978;2023-04-30T07:52:16;8.10;;;3.95;;
23531;SDS011;11943;52.270;20.978;2023-04-30T07:54:42;5.95;;;4.32;;
23531;SDS011;11943;52.270;20.978;2023-04-30T07:57:08;8.38;;;4.65;;
23531;SDS011;11943;52.270;20.978;2023-04-30T07:59:33;7.78;;;4.10;;
23531;SDS011;11943;52.270;20.978;2023-04-30T08:01:59;6.65;;;3.80;;
23531;SDS011;11943;52.270;20.978;2023-04-30T08:04:25;13.60;;;4.03;;
23531;SDS011;11943;52.270;20.978;2023-04-30T08:06:51;9.00;;;5.05;;
23531;SDS011;11943;52.270;20.978;2023-04-30T08:09:17;6.75;;;3.92;;
23531;SDS011;11943;52.270;20.978;2023-04-30T08:11:42;9.93;;;4.32;;
23531;SDS011;11943;52.270;20.978;2023-04-30T08:14:08;9.40;;;4.80;;
23531;SDS011;11943;52.270;20.978;2023-04-30T08:16:33;9.38;;;5.10;;
23531;SDS011;11943;52.270;20.978;2023-04-30T08:18:59;16.77;;;4.97;;
23531;SDS011;11943;52.270;20.978;2023-04-30T08:21:25;8.82;;;4.10;;
23531;SDS011;11943;52.270;20.978;2023-04-30T08:23:54;15.05;;;4.18;;
23531;SDS011;11943;52.270;20.978;2023-04-30T08:26:21;10.25;;;4.72;;
23531;SDS011;11943;52.270;20.978;2023-04-30T08:28:47;6.80;;;4.22;;
23531;SDS011;11943;52.270;20.978;2023-04-30T08:31:13;6.15;;;3.72;;
23531;SDS011;11943;52.270;20.978;2023-04-30T08:33:39;6.40;;;3.38;;
23531;SDS011;11943;52.270;20.978;2023-04-30T08:36:05;5.72;;;3.72;;
23531;SDS011;11943;52.270;20.978;2023-04-30T08:38:30;8.23;;;4.20;;
23531;SDS011;11943;52.270;20.978;2023-04-30T08:41:12;11.38;;;4.07;;
23531;SDS011;11943;52.270;20.978;2023-04-30T08:43:39;5.68;;;3.28;;
23531;SDS011;11943;52.270;20.978;2023-04-30T08:46:05;6.22;;;3.78;;
23531;SDS011;11943;52.270;20.978;2023-04-30T08:48:31;9.38;;;3.83;;
23531;SDS011;11943;52.270;20.978;2023-04-30T08:50:58;9.88;;;2.97;;
23531;SDS011;11943;52.270;20.978;2023-04-30T08:53:28;8.90;;;2.90;;
23531;SDS011;11943;52.270;20.978;2023-04-30T08:55:55;7.85;;;3.03;;
23531;SDS011;11943;52.270;20.978;2023-04-30T08:58:21;3.97;;;2.53;;
23531;SDS011;11943;52.270;20.978;2023-04-30T09:00:47;5.88;;;2.85;;
23531;SDS011;11943;52.270;20.978;2023-04-30T09:03:13;5.78;;;2.65;;
23531;SDS011;11943;52.270;20.978;2023-04-30T09:05:39;8.35;;;2.90;;
23531;SDS011;11943;52.270;20.978;2023-04-30T09:08:06;3.53;;;2.50;;
23531;SDS011;11943;52.270;20.978;2023-04-30T09:10:35;4.18;;;2.80;;
23531;SDS011;11943;52.270;20.978;2023-04-30T09:13:05;6.25;;;2.70;;
23531;SDS011;11943;52.270;20.978;2023-04-30T09:15:32;3.78;;;2.70;;
23531;SDS011;11943;52.270;20.978;2023-04-30T09:18:09;7.30;;;2.70;;
23531;SDS011;11943;52.270;20.978;2023-04-30T09:20:58;5.10;;;3.00;;
23531;SDS011;11943;52.270;20.978;2023-04-30T09:23:28;4.22;;;2.50;;
23531;SDS011;11943;52.270;20.978;2023-04-30T09:25:54;4.75;;;2.53;;
23531;SDS011;11943;52.270;20.978;2023-04-30T09:28:21;4.90;;;3.10;;
23531;SDS011;11943;52.270;20.978;2023-04-30T09:30:49;5.15;;;3.25;;
23531;SDS011;11943;52.270;20.978;2023-04-30T09:33:15;4.63;;;2.78;;
23531;SDS011;11943;52.270;20.978;2023-04-30T09:35:41;5.88;;;2.80;;
23531;SDS011;11943;52.270;20.978;2023-04-30T09:38:07;3.63;;;2.53;;
23531;SDS011;11943;52.270;20.978;2023-04-30T09:40:59;5.32;;;2.50;;
23531;SDS011;11943;52.270;20.978;2023-04-30T09:43:28;3.22;;;2.60;;
23531;SDS011;11943;52.270;20.978;2023-04-30T09:45:56;6.22;;;2.65;;
23531;SDS011;11943;52.270;20.978;2023-04-30T09:48:24;6.40;;;2.78;;
23531;SDS011;11943;52.270;20.978;2023-04-30T09:50:53;4.25;;;2.58;;
23531;SDS011;11943;52.270;20.978;2023-04-30T09:53:19;5.75;;;2.83;;
23531;SDS011;11943;52.270;20.978;2023-04-30T09:55:46;12.63;;;2.60;;
23531;SDS011;11943;52.270;20.978;2023-04-30T09:58:13;7.03;;;2.28;;
23531;SDS011;11943;52.270;20.978;2023-04-30T10:03:08;8.85;;;2.63;;
23531;SDS011;11943;52.270;20.978;2023-04-30T10:05:42;7.20;;;2.85;;
23531;SDS011;11943;52.270;20.978;2023-04-30T10:11:09;3.90;;;2.72;;
23531;SDS011;11943;52.270;20.978;2023-04-30T10:16:46;4.82;;;2.00;;
23531;SDS011;11943;52.270;20.978;2023-04-30T10:19:24;6.18;;;1.98;;
23531;SDS011;11943;52.270;20.978;2023-04-30T10:21:53;5.93;;;2.20;;
23531;SDS011;11943;52.270;20.978;2023-04-30T10:24:19;5.40;;;1.92;;
23531;SDS011;11943;52.270;20.978;2023-04-30T10:26:46;4.13;;;2.15;;
23531;SDS011;11943;52.270;20.978;2023-04-30T10:29:12;8.73;;;2.33;;
23531;SDS011;11943;52.270;20.978;2023-04-30T10:31:44;5.03;;;2.33;;
23531;SDS011;11943;52.270;20.978;2023-04-30T10:36:46;9.60;;;1.70;;
23531;SDS011;11943;52.270;20.978;2023-04-30T10:39:16;7.00;;;2.25;;
23531;SDS011;11943;52.270;20.978;2023-04-30T10:41:43;5.88;;;1.80;;
23531;SDS011;11943;52.270;20.978;2023-04-30T10:44:11;3.58;;;1.77;;
23531;SDS011;11943;52.270;20.978;2023-04-30T10:46:36;4.25;;;2.20;;
23531;SDS011;11943;52.270;20.978;2023-04-30T10:49:02;7.22;;;1.83;;
23531;SDS011;11943;52.270;20.978;2023-04-30T10:51:43;6.47;;;1.98;;
23531;SDS011;11943;52.270;20.978;2023-04-30T10:54:10;2.90;;;1.40;;
23531;SDS011;11943;52.270;20.978;2023-04-30T10:56:37;2.55;;;1.50;;
23531;SDS011;11943;52.270;20.978;2023-04-30T10:59:03;4.97;;;1.90;;
23531;SDS011;11943;52.270;20.978;2023-04-30T11:01:29;5.32;;;1.90;;
23531;SDS011;11943;52.270;20.978;2023-04-30T11:04:08;2.83;;;1.75;;
23531;SDS011;11943;52.270;20.978;2023-04-30T11:06:48;4.82;;;1.75;;
23531;SDS011;11943;52.270;20.978;2023-04-30T11:09:14;9.98;;;1.88;;
23531;SDS011;11943;52.270;20.978;2023-04-30T11:11:42;2.85;;;1.70;;
23531;SDS011;11943;52.270;20.978;2023-04-30T11:14:10;7.15;;;1.95;;
23531;SDS011;11943;52.270;20.978;2023-04-30T11:16:36;3.78;;;1.80;;
23531;SDS011;11943;52.270;20.978;2023-04-30T11:19:05;5.45;;;2.35;;
23531;SDS011;11943;52.270;20.978;2023-04-30T11:21:33;5.35;;;1.65;;
23531;SDS011;11943;52.270;20.978;2023-04-30T11:24:02;4.13;;;2.05;;
23531;SDS011;11943;52.270;20.978;2023-04-30T11:26:28;3.60;;;1.92;;
23531;SDS011;11943;52.270;20.978;2023-04-30T11:28:54;6.57;;;1.80;;
23531;SDS011;11943;52.270;20.978;2023-04-30T11:31:21;3.25;;;1.42;;
23531;SDS011;11943;52.270;20.978;2023-04-30T11:33:56;3.47;;;1.70;;
23531;SDS011;11943;52.270;20.978;2023-04-30T11:36:24;3.92;;;1.70;;
23531;SDS011;11943;52.270;20.978;2023-04-30T11:38:54;4.47;;;1.58;;
23531;SDS011;11943;52.270;20.978;2023-04-30T11:41:21;2.40;;;1.57;;
23531;SDS011;11943;52.270;20.978;2023-04-30T11:43:47;7.90;;;1.70;;
23531;SDS011;11943;52.270;20.978;2023-04-30T11:46:14;5.22;;;1.60;;
23531;SDS011;11943;52.270;20.978;2023-04-30T11:48:42;5.97;;;1.90;;
23531;SDS011;11943;52.270;20.978;2023-04-30T11:53:41;4.07;;;1.80;;
23531;SDS011;11943;52.270;20.978;2023-04-30T11:56:07;3.60;;;1.90;;
23531;SDS011;11943;52.270;20.978;2023-04-30T11:58:36;7.30;;;1.80;;
23531;SDS011;11943;52.270;20.978;2023-04-30T12:01:06;5.95;;;1.80;;
23531;SDS011;11943;52.270;20.978;2023-04-30T12:03:39;4.10;;;1.83;;
23531;SDS011;11943;52.270;20.978;2023-04-30T12:06:05;5.40;;;1.90;;
23531;SDS011;11943;52.270;20.978;2023-04-30T12:08:34;4.05;;;1.77;;
23531;SDS011;11943;52.270;20.978;2023-04-30T12:11:00;13.43;;;2.25;;
23531;SDS011;11943;52.270;20.978;2023-04-30T12:13:25;7.07;;;1.85;;
23531;SDS011;11943;52.270;20.978;2023-04-30T12:15:58;5.05;;;2.28;;
23531;SDS011;11943;52.270;20.978;2023-04-30T12:18:24;6.10;;;1.90;;
23531;SDS011;11943;52.270;20.978;2023-04-30T12:20:51;2.33;;;1.48;;
23531;SDS011;11943;52.270;20.978;2023-04-30T12:23:17;4.47;;;1.60;;
23531;SDS011;11943;52.270;20.978;2023-04-30T12:25:43;5.10;;;1.50;;
23531;SDS011;11943;52.270;20.978;2023-04-30T12:28:09;6.30;;;1.70;;
23531;SDS011;11943;52.270;20.978;2023-04-30T12:30:35;6.15;;;1.73;;
23531;SDS011;11943;52.270;20.978;2023-04-30T12:33:01;4.22;;;1.88;;
23531;SDS011;11943;52.270;20.978;2023-04-30T12:35:28;3.25;;;1.60;;
23531;SDS011;11943;52.270;20.978;2023-04-30T12:38:05;4.25;;;1.88;;
23531;SDS011;11943;52.270;20.978;2023-04-30T12:40:33;4.38;;;2.30;;
23531;SDS011;11943;52.270;20.978;2023-04-30T12:45:45;2.70;;;1.60;;
23531;SDS011;11943;52.270;20.978;2023-04-30T12:48:16;3.50;;;1.70;;
23531;SDS011;11943;52.270;20.978;2023-04-30T12:51:01;3.45;;;1.50;;
23531;SDS011;11943;52.270;20.978;2023-04-30T12:53:27;4.28;;;2.10;;
23531;SDS011;11943;52.270;20.978;2023-04-30T12:56:06;4.60;;;1.60;;
23531;SDS011;11943;52.270;20.978;2023-04-30T12:58:36;3.30;;;1.60;;
23531;SDS011;11943;52.270;20.978;2023-04-30T13:01:02;6.10;;;1.70;;
23531;SDS011;11943;52.270;20.978;2023-04-30T13:03:28;4.85;;;1.30;;
23531;SDS011;11943;52.270;20.978;2023-04-30T13:05:53;5.40;;;1.58;;
23531;SDS011;11943;52.270;20.978;2023-04-30T13:08:19;4.88;;;2.00;;
23531;SDS011;11943;52.270;20.978;2023-04-30T13:10:45;2.92;;;1.77;;
23531;SDS011;11943;52.270;20.978;2023-04-30T13:13:13;3.80;;;1.77;;
23531;SDS011;11943;52.270;20.978;2023-04-30T13:15:43;3.22;;;1.88;;
23531;SDS011;11943;52.270;20.978;2023-04-30T13:18:09;4.63;;;1.58;;
23531;SDS011;11943;52.270;20.978;2023-04-30T13:20:35;6.53;;;1.67;;
23531;SDS011;11943;52.270;20.978;2023-04-30T13:23:02;5.55;;;1.92;;
23531;SDS011;11943;52.270;20.978;2023-04-30T13:25:32;6.20;;;1.60;;
23531;SDS011;11943;52.270;20.978;2023-04-30T13:27:58;3.22;;;1.60;;
23531;SDS011;11943;52.270;20.978;2023-04-30T13:30:24;7.45;;;2.00;;
23531;SDS011;11943;52.270;20.978;2023-04-30T13:32:50;3.53;;;1.95;;
23531;SDS011;11943;52.270;20.978;2023-04-30T13:35:16;6.30;;;2.25;;
23531;SDS011;11943;52.270;20.978;2023-04-30T13:37:42;4.22;;;1.73;;
23531;SDS011;11943;52.270;20.978;2023-04-30T13:40:08;6.53;;;2.08;;
23531;SDS011;11943;52.270;20.978;2023-04-30T13:42:35;7.15;;;1.98;;
23531;SDS011;11943;52.270;20.978;2023-04-30T13:45:03;5.35;;;2.10;;
23531;SDS011;11943;52.270;20.978;2023-04-30T13:47:30;9.15;;;1.67;;
23531;SDS011;11943;52.270;20.978;2023-04-30T13:49:56;6.47;;;1.65;;
23531;SDS011;11943;52.270;20.978;2023-04-30T13:52:22;3.30;;;2.10;;
23531;SDS011;11943;52.270;20.978;2023-04-30T13:54:47;3.60;;;1.75;;
23531;SDS011;11943;52.270;20.978;2023-04-30T13:57:13;4.35;;;1.80;;
23531;SDS011;11943;52.270;20.978;2023-04-30T13:59:39;5.00;;;1.70;;
23531;SDS011;11943;52.270;20.978;2023-04-30T14:02:05;2.28;;;1.65;;
23531;SDS011;11943;52.270;20.978;2023-04-30T14:04:31;2.75;;;1.63;;
23531;SDS011;11943;52.270;20.978;2023-04-30T14:06:56;4.43;;;1.67;;
23531;SDS011;11943;52.270;20.978;2023-04-30T14:09:22;3.63;;;2.08;;
23531;SDS011;11943;52.270;20.978;2023-04-30T14:11:48;5.30;;;2.08;;
23531;SDS011;11943;52.270;20.978;2023-04-30T14:14:14;5.15;;;2.00;;
23531;SDS011;11943;52.270;20.978;2023-04-30T14:16:39;2.53;;;1.35;;
23531;SDS011;11943;52.270;20.978;2023-04-30T14:19:06;4.70;;;1.52;;
23531;SDS011;11943;52.270;20.978;2023-04-30T14:21:32;3.75;;;1.38;;
23531;SDS011;11943;52.270;20.978;2023-04-30T14:23:58;5.18;;;1.40;;
23531;SDS011;11943;52.270;20.978;2023-04-30T14:26:23;5.18;;;1.30;;
23531;SDS011;11943;52.270;20.978;2023-04-30T14:28:49;7.05;;;1.70;;
23531;SDS011;11943;52.270;20.978;2023-04-30T14:31:15;6.03;;;1.55;;
23531;SDS011;11943;52.270;20.978;2023-04-30T14:33:41;3.00;;;1.60;;
23531;SDS011;11943;52.270;20.978;2023-04-30T14:36:07;4.15;;;1.83;;
23531;SDS011;11943;52.270;20.978;2023-04-30T14:38:33;5.75;;;1.60;;
23531;SDS011;11943;52.270;20.978;2023-04-30T14:40:59;4.20;;;2.00;;
23531;SDS011;11943;52.270;20.978;2023-04-30T14:43:24;3.78;;;1.85;;
23531;SDS011;11943;52.270;20.978;2023-04-30T14:45:53;5.70;;;1.98;;
23531;SDS011;11943;52.270;20.978;2023-04-30T14:48:18;8.18;;;1.83;;
23531;SDS011;11943;52.270;20.978;2023-04-30T14:50:44;4.35;;;1.42;;
23531;SDS011;11943;52.270;20.978;2023-04-30T14:53:10;7.72;;;1.58;;
23531;SDS011;11943;52.270;20.978;2023-04-30T14:55:36;3.97;;;1.80;;
23531;SDS011;11943;52.270;20.978;2023-04-30T14:58:05;2.88;;;1.40;;
23531;SDS011;11943;52.270;20.978;2023-04-30T15:00:31;2.15;;;1.30;;